createdAt,value
2022-10-07T00:00:15.463Z,1.15
2022-10-07T00:03:37.749Z,1.00
2022-10-07T00:06:59.986Z,1.05
2022-10-07T00:10:22.306Z,1.52
2022-10-07T00:13:47.291Z,1.33
2022-10-07T00:17:09.471Z,1.27
2022-10-07T00:20:36.431Z,0.93
2022-10-07T00:23:59.263Z,1.15
2022-10-07T00:27:21.438Z,0.85
2022-10-07T00:30:43.714Z,1.20
2022-10-07T00:34:06.370Z,0.98
2022-10-07T00:37:28.665Z,1.00
2022-10-07T00:40:50.890Z,0.90
2022-10-07T00:44:31.870Z,1.25
2022-10-07T00:47:54.107Z,1.10
2022-10-07T00:51:16.809Z,1.00
2022-10-07T00:54:39.646Z,1.10
2022-10-07T00:58:09.356Z,1.40
2022-10-07T01:01:31.713Z,1.10
2022-10-07T01:04:56.381Z,0.95
2022-10-07T01:08:19.888Z,0.90
2022-10-07T01:11:56.927Z,0.85
2022-10-07T01:15:30.029Z,0.93
2022-10-07T01:19:24.100Z,0.95
2022-10-07T01:22:46.267Z,0.80
2022-10-07T01:26:09.366Z,0.70
2022-10-07T01:29:56.328Z,0.77
2022-10-07T01:33:23.839Z,0.95
2022-10-07T01:36:50.953Z,0.90
2022-10-07T01:40:17.995Z,1.00
2022-10-07T01:43:41.569Z,0.82
2022-10-07T01:47:03.909Z,0.82
2022-10-07T01:50:28.858Z,0.63
2022-10-07T01:53:51.084Z,0.90
2022-10-07T01:57:43.797Z,0.80
2022-10-07T02:01:14.874Z,0.52
2022-10-07T02:04:46.637Z,0.60
2022-10-07T02:08:39.167Z,0.80
2022-10-07T02:12:19.270Z,1.20
2022-10-07T02:15:53.493Z,0.63
2022-10-07T02:19:24.684Z,0.88
2022-10-07T02:22:48.274Z,0.90
2022-10-07T02:26:14.133Z,0.60
2022-10-07T02:29:38.254Z,0.80
2022-10-07T02:33:03.892Z,0.77
2022-10-07T02:36:37.797Z,0.65
2022-10-07T02:40:07.119Z,0.88
2022-10-07T02:43:46.634Z,0.57
2022-10-07T02:47:20.066Z,0.75
2022-10-07T02:50:45.694Z,0.73
2022-10-07T02:54:07.983Z,0.50
2022-10-07T02:57:38.246Z,0.68
2022-10-07T03:01:03.035Z,0.60
2022-10-07T03:04:26.785Z,0.70
2022-10-07T03:07:52.414Z,0.70
2022-10-07T03:11:14.733Z,0.60
2022-10-07T03:14:37.492Z,0.60
2022-10-07T03:18:02.311Z,0.63
2022-10-07T03:21:26.382Z,0.73
2022-10-07T03:24:50.806Z,0.60
2022-10-07T03:28:14.892Z,0.57
2022-10-07T03:31:37.789Z,0.63
2022-10-07T03:35:00.694Z,0.47
2022-10-07T03:38:22.976Z,0.60
2022-10-07T03:41:45.500Z,0.38
2022-10-07T03:45:08.128Z,0.40
2022-10-07T03:48:30.998Z,0.70
2022-10-07T03:51:53.523Z,0.60
2022-10-07T03:55:16.353Z,0.73
2022-10-07T03:58:39.326Z,0.40
2022-10-07T04:02:04.465Z,0.50
2022-10-07T04:05:27.727Z,0.50
2022-10-07T04:08:55.297Z,0.60
2022-10-07T04:12:17.758Z,0.57
2022-10-07T04:15:40.375Z,0.60
2022-10-07T04:19:02.925Z,0.50
2022-10-07T04:22:25.950Z,0.60
2022-10-07T04:25:48.280Z,0.45
2022-10-07T04:29:13.495Z,0.68
2022-10-07T04:32:36.420Z,0.60
2022-10-07T04:36:05.169Z,0.52
2022-10-07T04:39:48.934Z,0.40
2022-10-07T04:43:26.936Z,0.50
2022-10-07T04:46:56.914Z,0.50
2022-10-07T04:50:21.907Z,0.55
2022-10-07T04:53:44.161Z,0.65
2022-10-07T04:57:06.682Z,0.40
2022-10-07T05:00:29.191Z,0.50
2022-10-07T05:03:51.768Z,0.50
2022-10-07T05:07:14.566Z,0.55
2022-10-07T05:10:41.055Z,0.50
2022-10-07T05:14:03.540Z,0.55
2022-10-07T05:17:27.392Z,0.55
2022-10-07T05:20:51.056Z,0.70
2022-10-07T05:24:13.346Z,0.52
2022-10-07T05:27:35.885Z,0.70
2022-10-07T05:31:16.929Z,1.10
2022-10-07T05:38:08.970Z,0.70
2022-10-07T05:41:31.373Z,1.00
2022-10-07T05:44:56.248Z,0.52
2022-10-07T05:48:18.765Z,0.57
2022-10-07T05:51:41.152Z,0.90
2022-10-07T05:55:05.585Z,0.80
2022-10-07T05:58:27.966Z,1.10
2022-10-07T06:01:51.520Z,0.80
2022-10-07T06:08:39.247Z,0.70
2022-10-07T06:12:20.319Z,0.68
2022-10-07T06:15:44.215Z,0.80
2022-10-07T06:19:22.343Z,0.40
2022-10-07T06:22:46.665Z,0.60
2022-10-07T06:26:11.687Z,0.80
2022-10-07T06:29:34.217Z,0.75
2022-10-07T06:32:57.606Z,0.70
2022-10-07T06:36:20.613Z,1.20
2022-10-07T06:39:44.968Z,0.85
2022-10-07T06:43:07.931Z,1.90
2022-10-07T06:46:40.912Z,2.03
2022-10-07T06:50:03.806Z,1.98
2022-10-07T06:53:27.006Z,1.30
2022-10-07T06:56:50.053Z,1.30
2022-10-07T07:00:14.266Z,1.30
2022-10-07T07:03:38.757Z,2.22
2022-10-07T07:07:01.645Z,2.10
2022-10-07T07:10:24.165Z,1.50
2022-10-07T07:13:48.418Z,1.20
2022-10-07T07:17:11.576Z,1.42
2022-10-07T07:40:19.615Z,1.67
2022-10-07T07:43:41.946Z,1.48
2022-10-07T07:47:04.492Z,1.80
2022-10-07T07:50:27.428Z,2.25
2022-10-07T07:53:52.294Z,1.52
2022-10-07T07:57:14.786Z,1.98
2022-10-07T08:00:37.346Z,1.60
2022-10-07T08:04:01.312Z,2.05
2022-10-07T08:07:23.608Z,1.90
2022-10-07T08:10:51.025Z,2.13
2022-10-07T08:14:16.229Z,1.80
2022-10-07T08:17:39.175Z,2.28
2022-10-07T08:21:05.082Z,2.25
2022-10-07T08:24:28.697Z,2.47
2022-10-07T08:27:51.510Z,2.15
2022-10-07T08:31:15.693Z,2.10
2022-10-07T08:34:37.914Z,1.92
2022-10-07T08:38:00.095Z,1.70
2022-10-07T08:41:36.455Z,2.03
2022-10-07T08:44:59.850Z,1.33
2022-10-07T08:48:29.485Z,1.55
2022-10-07T08:52:00.361Z,1.40
2022-10-07T08:55:36.786Z,1.23
2022-10-07T08:59:24.058Z,1.33
2022-10-07T09:03:25.323Z,1.50
2022-10-07T09:07:00.585Z,1.35
2022-10-07T09:10:40.464Z,1.48
2022-10-07T09:14:26.241Z,1.10
2022-10-07T09:21:23.445Z,1.23
2022-10-07T09:24:53.774Z,1.10
2022-10-07T09:28:18.975Z,1.20
2022-10-07T09:35:06.083Z,0.90
2022-10-07T09:38:37.038Z,1.40
2022-10-07T09:41:59.383Z,1.10
2022-10-07T09:45:25.070Z,1.20
2022-10-07T09:48:52.950Z,0.82
2022-10-07T09:52:17.941Z,1.20
2022-10-07T09:55:42.937Z,1.08
2022-10-07T09:59:21.707Z,1.00
2022-10-07T10:02:49.372Z,1.23
2022-10-07T10:06:12.359Z,1.20
2022-10-07T10:09:35.180Z,1.23
2022-10-07T10:12:59.469Z,1.38
2022-10-07T10:16:24.453Z,1.07
2022-10-07T10:19:46.704Z,0.93
2022-10-07T10:23:33.259Z,0.98
2022-10-07T10:27:21.762Z,1.25
2022-10-07T10:30:57.834Z,0.90
2022-10-07T10:34:44.654Z,0.90
2022-10-07T10:38:25.090Z,1.00
2022-10-07T10:41:52.741Z,1.20
2022-10-07T10:45:37.741Z,1.00
2022-10-07T10:49:13.008Z,1.00
2022-10-07T10:53:02.779Z,0.80
2022-10-07T10:56:40.497Z,0.93
2022-10-07T11:00:09.249Z,0.93
2022-10-07T11:03:49.439Z,1.00
2022-10-07T11:07:24.929Z,1.20
2022-10-07T11:14:22.696Z,0.90
2022-10-07T11:17:49.530Z,1.00
2022-10-07T11:21:27.055Z,0.88
2022-10-07T11:24:56.840Z,0.68
2022-10-07T11:28:26.806Z,0.93
2022-10-07T11:32:21.156Z,1.10
2022-10-07T11:35:51.004Z,0.90
2022-10-07T11:39:13.261Z,0.90
2022-10-07T11:42:44.354Z,0.93
2022-10-07T11:46:34.016Z,0.70
2022-10-07T11:50:14.159Z,0.88
2022-10-07T11:53:39.968Z,1.17
2022-10-07T11:57:02.255Z,0.82
2022-10-07T12:00:25.838Z,1.13
2022-10-07T12:03:48.585Z,1.00
2022-10-07T12:07:32.978Z,0.98
2022-10-07T12:10:57.098Z,0.90
2022-10-07T12:14:44.619Z,1.20
2022-10-07T12:18:06.787Z,0.95
2022-10-07T12:25:32.377Z,0.98
2022-10-07T12:28:57.350Z,1.05
2022-10-07T12:32:51.096Z,0.63
2022-10-07T12:36:23.711Z,0.90
2022-10-07T12:39:47.171Z,0.88
2022-10-07T12:43:34.434Z,0.85
2022-10-07T12:47:18.430Z,0.60
2022-10-07T12:50:42.145Z,1.30
2022-10-07T12:54:14.861Z,0.80
2022-10-07T12:57:39.872Z,0.80
2022-10-07T13:01:26.308Z,0.77
2022-10-07T13:05:10.386Z,0.82
2022-10-07T13:08:38.591Z,0.82
2022-10-07T13:12:04.429Z,0.90
2022-10-07T13:15:44.459Z,0.88
2022-10-07T13:19:22.861Z,1.10
2022-10-07T13:22:49.463Z,0.80
2022-10-07T13:26:13.123Z,0.73
2022-10-07T13:29:35.445Z,0.85
2022-10-07T13:33:19.473Z,0.90
2022-10-07T13:36:45.576Z,0.63
2022-10-07T13:40:28.241Z,0.80
2022-10-07T13:43:54.580Z,0.85
2022-10-07T13:47:21.470Z,0.57
2022-10-07T13:50:44.436Z,0.88
2022-10-07T13:54:17.976Z,1.10
2022-10-07T13:57:44.010Z,0.70
2022-10-07T14:01:06.527Z,0.60
2022-10-07T14:04:33.190Z,0.90
2022-10-07T14:08:00.777Z,0.75
2022-10-07T14:11:23.045Z,0.65
2022-10-07T14:14:52.299Z,0.90
2022-10-07T14:18:16.946Z,0.90
2022-10-07T14:21:43.058Z,0.70
2022-10-07T14:25:16.705Z,0.88
2022-10-07T14:28:40.602Z,1.10
2022-10-07T14:32:50.731Z,0.73
2022-10-07T14:36:20.785Z,0.65
2022-10-07T14:39:47.729Z,0.70
2022-10-07T14:43:10.035Z,0.98
2022-10-07T14:46:32.312Z,0.80
2022-10-07T14:49:56.496Z,0.95
2022-10-07T14:53:18.662Z,1.05
2022-10-07T14:56:40.857Z,0.82
2022-10-07T15:00:11.410Z,0.70
2022-10-07T15:03:34.835Z,1.00
2022-10-07T15:06:58.026Z,0.60
2022-10-07T15:10:23.278Z,0.60
2022-10-07T15:13:49.827Z,0.93
2022-10-07T15:17:12.321Z,1.05
2022-10-07T15:20:34.759Z,0.90
2022-10-07T15:23:57.422Z,0.63
2022-10-07T15:27:19.899Z,0.70
2022-10-07T15:30:42.154Z,0.82
2022-10-07T15:34:04.776Z,0.80
2022-10-07T15:37:28.164Z,0.70
2022-10-07T15:40:55.677Z,0.88
2022-10-07T15:44:24.508Z,0.60
2022-10-07T15:47:46.698Z,0.70
2022-10-07T15:51:08.882Z,0.60
2022-10-07T15:54:31.918Z,0.70
2022-10-07T15:57:54.125Z,0.47
2022-10-07T16:01:16.328Z,0.50
2022-10-07T16:04:39.937Z,0.70
2022-10-07T16:08:02.762Z,0.70
2022-10-07T16:11:26.741Z,0.63
2022-10-07T16:14:49.258Z,0.50
2022-10-07T16:18:11.467Z,0.77
2022-10-07T16:21:36.697Z,0.70
2022-10-07T16:24:58.906Z,0.65
2022-10-07T16:28:39.918Z,0.50
2022-10-07T16:32:02.796Z,0.40
2022-10-07T16:35:25.153Z,0.50
2022-10-07T16:38:48.290Z,0.60
2022-10-07T16:42:10.556Z,0.55
2022-10-07T16:45:32.818Z,0.52
2022-10-07T16:48:55.526Z,0.52
2022-10-07T16:52:17.868Z,0.40
2022-10-07T16:55:40.070Z,0.60
2022-10-07T16:59:05.934Z,0.45
2022-10-07T17:02:33.258Z,0.40
2022-10-07T17:05:56.842Z,0.55
2022-10-07T17:09:19.741Z,0.60
2022-10-07T17:12:43.250Z,0.38
2022-10-07T17:16:05.889Z,0.50
2022-10-07T17:19:28.971Z,0.60
2022-10-07T17:22:51.130Z,0.60
2022-10-07T17:26:14.201Z,0.82
2022-10-07T17:29:38.375Z,0.90
2022-10-07T17:33:00.775Z,1.10
2022-10-07T17:36:23.615Z,1.10
2022-10-07T17:39:45.883Z,1.40
2022-10-07T17:43:08.043Z,1.90
2022-10-07T17:46:33.067Z,1.73
2022-10-07T17:49:55.384Z,1.38
2022-10-07T17:53:17.489Z,1.27
2022-10-07T17:56:39.686Z,0.88
2022-10-07T18:00:04.524Z,1.05
2022-10-07T18:03:34.220Z,1.17
2022-10-07T18:06:56.477Z,1.50
2022-10-07T18:10:20.672Z,0.95
2022-10-07T18:14:02.460Z,1.25
2022-10-07T18:17:24.911Z,1.40
2022-10-07T18:20:47.935Z,1.17
2022-10-07T18:24:10.087Z,1.27
2022-10-07T18:27:32.325Z,0.90
2022-10-07T18:30:54.863Z,1.13
2022-10-07T18:34:17.030Z,1.20
2022-10-07T18:37:39.229Z,0.82
2022-10-07T18:41:03.493Z,1.10
2022-10-07T18:44:26.210Z,1.30
2022-10-07T18:47:48.763Z,0.90
2022-10-07T18:51:12.729Z,1.20
2022-10-07T18:54:34.923Z,1.10
2022-10-07T18:57:57.042Z,0.70
2022-10-07T19:01:22.170Z,0.80
2022-10-07T19:08:06.822Z,1.15
2022-10-07T19:11:30.447Z,0.85
2022-10-07T19:14:52.650Z,0.75
2022-10-07T19:18:14.812Z,0.93
2022-10-07T19:21:36.957Z,0.80
2022-10-07T19:25:17.746Z,0.93
2022-10-07T19:28:41.069Z,1.00
2022-10-07T19:32:07.871Z,1.02
2022-10-07T19:35:33.042Z,1.00
2022-10-07T19:38:58.399Z,1.08
2022-10-07T19:42:20.524Z,1.00
2022-10-07T19:45:43.676Z,1.00
2022-10-07T19:49:07.306Z,0.98
2022-10-07T19:52:29.438Z,1.00
2022-10-07T19:55:51.641Z,0.65
2022-10-07T19:59:15.027Z,0.98
2022-10-07T20:02:37.269Z,0.65
2022-10-07T20:06:05.945Z,1.00
2022-10-07T20:09:28.210Z,0.98
2022-10-07T20:12:50.782Z,1.10
2022-10-07T20:16:14.777Z,1.00
2022-10-07T20:19:37.877Z,1.08
2022-10-07T20:23:01.009Z,0.90
2022-10-07T20:26:32.374Z,1.08
2022-10-07T20:29:57.284Z,1.15
